sensor_id;sensor_type;location;lat;lon;timestamp;P1;durP1;ratioP1;P2;durP2;ratioP2
54502;SDS011;40411;50.090;21.954;2022-11-20T00:00:54;85.72;;;36.17;;
54502;SDS011;40411;50.090;21.954;2022-11-20T00:03:20;110.07;;;39.30;;
54502;SDS011;40411;50.090;21.954;2022-11-20T00:05:46;104.90;;;41.38;;
54502;SDS011;40411;50.090;21.954;2022-11-20T00:08:12;123.38;;;48.92;;
54502;SDS011;40411;50.090;21.954;2022-11-20T00:10:38;130.63;;;48.92;;
54502;SDS011;40411;50.090;21.954;2022-11-20T00:13:06;108.07;;;45.78;;
54502;SDS011;40411;50.090;21.954;2022-11-20T00:15:33;93.70;;;37.70;;
54502;SDS011;40411;50.090;21.954;2022-11-20T00:17:59;100.82;;;38.78;;
54502;SDS011;40411;50.090;21.954;2022-11-20T00:20:25;118.20;;;40.22;;
54502;SDS011;40411;50.090;21.954;2022-11-20T00:22:51;108.45;;;42.10;;
54502;SDS011;40411;50.090;21.954;2022-11-20T00:25:17;104.72;;;39.47;;
54502;SDS011;40411;50.090;21.954;2022-11-20T00:27:43;92.35;;;37.72;;
54502;SDS011;40411;50.090;21.954;2022-11-20T00:30:09;93.80;;;38.60;;
54502;SDS011;40411;50.090;21.954;2022-11-20T00:32:35;114.88;;;39.83;;
54502;SDS011;40411;50.090;21.954;2022-11-20T00:35:01;98.13;;;40.25;;
54502;SDS011;40411;50.090;21.954;2022-11-20T00:37:26;111.22;;;38.90;;
54502;SDS011;40411;50.090;21.954;2022-11-20T00:39:52;77.95;;;29.70;;
54502;SDS011;40411;50.090;21.954;2022-11-20T00:42:18;85.20;;;32.78;;
54502;SDS011;40411;50.090;21.954;2022-11-20T00:44:44;97.97;;;36.38;;
54502;SDS011;40411;50.090;21.954;2022-11-20T00:47:10;100.60;;;35.75;;
54502;SDS011;40411;50.090;21.954;2022-11-20T00:49:36;91.43;;;35.63;;
54502;SDS011;40411;50.090;21.954;2022-11-20T00:52:02;93.57;;;33.33;;
54502;SDS011;40411;50.090;21.954;2022-11-20T00:54:28;87.30;;;31.23;;
54502;SDS011;40411;50.090;21.954;2022-11-20T00:56:53;85.15;;;31.60;;
54502;SDS011;40411;50.090;21.954;2022-11-20T00:59:19;97.57;;;33.60;;
54502;SDS011;40411;50.090;21.954;2022-11-20T01:01:45;85.95;;;29.65;;
54502;SDS011;40411;50.090;21.954;2022-11-20T01:04:11;88.07;;;33.20;;
54502;SDS011;40411;50.090;21.954;2022-11-20T01:06:38;97.28;;;33.50;;
54502;SDS011;40411;50.090;21.954;2022-11-20T01:09:06;88.75;;;32.33;;
54502;SDS011;40411;50.090;21.954;2022-11-20T01:11:38;103.10;;;36.67;;
54502;SDS011;40411;50.090;21.954;2022-11-20T01:14:07;87.25;;;30.13;;
54502;SDS011;40411;50.090;21.954;2022-11-20T01:16:38;92.47;;;33.63;;
54502;SDS011;40411;50.090;21.954;2022-11-20T01:19:06;82.63;;;30.67;;
54502;SDS011;40411;50.090;21.954;2022-11-20T01:21:36;86.65;;;35.05;;
54502;SDS011;40411;50.090;21.954;2022-11-20T01:24:05;95.15;;;34.60;;
54502;SDS011;40411;50.090;21.954;2022-11-20T01:26:33;86.53;;;33.00;;
54502;SDS011;40411;50.090;21.954;2022-11-20T01:29:03;85.45;;;32.92;;
54502;SDS011;40411;50.090;21.954;2022-11-20T01:31:30;94.90;;;34.88;;
54502;SDS011;40411;50.090;21.954;2022-11-20T01:33:59;104.25;;;35.75;;
54502;SDS011;40411;50.090;21.954;2022-11-20T01:36:28;110.15;;;36.97;;
54502;SDS011;40411;50.090;21.954;2022-11-20T01:38:57;98.28;;;33.53;;
54502;SDS011;40411;50.090;21.954;2022-11-20T01:41:27;105.30;;;36.47;;
54502;SDS011;40411;50.090;21.954;2022-11-20T01:44:14;103.30;;;36.08;;
54502;SDS011;40411;50.090;21.954;2022-11-20T01:46:59;115.15;;;36.28;;
54502;SDS011;40411;50.090;21.954;2022-11-20T01:49:30;82.22;;;33.42;;
54502;SDS011;40411;50.090;21.954;2022-11-20T01:51:59;92.07;;;34.90;;
54502;SDS011;40411;50.090;21.954;2022-11-20T01:54:36;106.20;;;32.58;;
54502;SDS011;40411;50.090;21.954;2022-11-20T01:57:06;93.97;;;33.88;;
54502;SDS011;40411;50.090;21.954;2022-11-20T01:59:37;85.90;;;33.08;;
54502;SDS011;40411;50.090;21.954;2022-11-20T02:02:10;97.35;;;33.63;;
54502;SDS011;40411;50.090;21.954;2022-11-20T02:04:36;87.50;;;35.38;;
54502;SDS011;40411;50.090;21.954;2022-11-20T02:07:02;102.82;;;36.20;;
54502;SDS011;40411;50.090;21.954;2022-11-20T02:09:30;81.32;;;31.20;;
54502;SDS011;40411;50.090;21.954;2022-11-20T02:11:56;84.78;;;30.80;;
54502;SDS011;40411;50.090;21.954;2022-11-20T02:14:23;82.68;;;34.75;;
54502;SDS011;40411;50.090;21.954;2022-11-20T02:16:50;90.95;;;31.02;;
54502;SDS011;40411;50.090;21.954;2022-11-20T02:21:51;96.00;;;33.22;;
54502;SDS011;40411;50.090;21.954;2022-11-20T02:24:20;85.53;;;31.02;;
54502;SDS011;40411;50.090;21.954;2022-11-20T02:30:02;94.90;;;32.75;;
54502;SDS011;40411;50.090;21.954;2022-11-20T02:32:36;87.20;;;31.17;;
54502;SDS011;40411;50.090;21.954;2022-11-20T02:35:46;93.03;;;34.00;;
54502;SDS011;40411;50.090;21.954;2022-11-20T02:37:53;83.85;;;32.95;;
54502;SDS011;40411;50.090;21.954;2022-11-20T02:40:20;96.15;;;33.50;;
54502;SDS011;40411;50.090;21.954;2022-11-20T02:42:47;80.85;;;31.05;;
54502;SDS011;40411;50.090;21.954;2022-11-20T02:45:13;100.05;;;32.10;;
54502;SDS011;40411;50.090;21.954;2022-11-20T02:47:38;78.07;;;30.17;;
54502;SDS011;40411;50.090;21.954;2022-11-20T02:50:05;69.57;;;29.50;;
54502;SDS011;40411;50.090;21.954;2022-11-20T02:52:31;83.35;;;29.63;;
54502;SDS011;40411;50.090;21.954;2022-11-20T02:54:57;93.07;;;30.13;;
54502;SDS011;40411;50.090;21.954;2022-11-20T02:57:23;79.80;;;30.83;;
54502;SDS011;40411;50.090;21.954;2022-11-20T02:59:49;85.65;;;30.20;;
54502;SDS011;40411;50.090;21.954;2022-11-20T03:02:14;64.63;;;27.58;;
54502;SDS011;40411;50.090;21.954;2022-11-20T03:04:40;75.47;;;28.65;;
54502;SDS011;40411;50.090;21.954;2022-11-20T03:07:08;75.60;;;31.15;;
54502;SDS011;40411;50.090;21.954;2022-11-20T03:09:35;84.95;;;29.50;;
54502;SDS011;40411;50.090;21.954;2022-11-20T03:12:01;78.03;;;27.67;;
54502;SDS011;40411;50.090;21.954;2022-11-20T03:14:27;74.05;;;27.45;;
54502;SDS011;40411;50.090;21.954;2022-11-20T03:16:52;73.53;;;29.38;;
54502;SDS011;40411;50.090;21.954;2022-11-20T03:19:18;66.25;;;26.38;;
54502;SDS011;40411;50.090;21.954;2022-11-20T03:21:44;82.28;;;29.15;;
54502;SDS011;40411;50.090;21.954;2022-11-20T03:24:10;63.63;;;26.13;;
54502;SDS011;40411;50.090;21.954;2022-11-20T03:26:36;61.63;;;25.50;;
54502;SDS011;40411;50.090;21.954;2022-11-20T03:29:03;59.45;;;25.67;;
54502;SDS011;40411;50.090;21.954;2022-11-20T03:31:31;61.58;;;27.08;;
54502;SDS011;40411;50.090;21.954;2022-11-20T03:33:59;59.45;;;23.20;;
54502;SDS011;40411;50.090;21.954;2022-11-20T03:36:26;60.97;;;22.92;;
54502;SDS011;40411;50.090;21.954;2022-11-20T03:38:54;70.82;;;25.25;;
54502;SDS011;40411;50.090;21.954;2022-11-20T03:41:22;63.90;;;24.10;;
54502;SDS011;40411;50.090;21.954;2022-11-20T03:43:50;73.03;;;25.05;;
54502;SDS011;40411;50.090;21.954;2022-11-20T03:46:18;62.05;;;23.13;;
54502;SDS011;40411;50.090;21.954;2022-11-20T03:48:44;65.80;;;25.27;;
54502;SDS011;40411;50.090;21.954;2022-11-20T03:53:39;65.38;;;24.08;;
54502;SDS011;40411;50.090;21.954;2022-11-20T03:56:07;70.43;;;23.08;;
54502;SDS011;40411;50.090;21.954;2022-11-20T03:58:34;66.95;;;23.48;;
54502;SDS011;40411;50.090;21.954;2022-11-20T04:03:38;51.15;;;19.95;;
54502;SDS011;40411;50.090;21.954;2022-11-20T04:06:09;56.80;;;21.48;;
54502;SDS011;40411;50.090;21.954;2022-11-20T04:08:39;59.45;;;22.35;;
54502;SDS011;40411;50.090;21.954;2022-11-20T04:11:39;54.35;;;20.15;;
54502;SDS011;40411;50.090;21.954;2022-11-20T04:14:02;55.75;;;20.00;;
54502;SDS011;40411;50.090;21.954;2022-11-20T04:16:30;50.38;;;19.75;;
54502;SDS011;40411;50.090;21.954;2022-11-20T04:18:58;71.47;;;23.65;;
54502;SDS011;40411;50.090;21.954;2022-11-20T04:21:25;55.30;;;22.98;;
54502;SDS011;40411;50.090;21.954;2022-11-20T04:23:52;59.92;;;22.27;;
54502;SDS011;40411;50.090;21.954;2022-11-20T04:26:19;60.88;;;23.08;;
54502;SDS011;40411;50.090;21.954;2022-11-20T04:28:45;54.28;;;22.27;;
54502;SDS011;40411;50.090;21.954;2022-11-20T04:31:13;64.07;;;23.08;;
54502;SDS011;40411;50.090;21.954;2022-11-20T04:33:41;59.33;;;19.80;;
54502;SDS011;40411;50.090;21.954;2022-11-20T04:36:11;57.78;;;24.25;;
54502;SDS011;40411;50.090;21.954;2022-11-20T04:38:39;59.05;;;23.52;;
54502;SDS011;40411;50.090;21.954;2022-11-20T04:41:06;53.00;;;21.20;;
54502;SDS011;40411;50.090;21.954;2022-11-20T04:43:33;57.15;;;22.17;;
54502;SDS011;40411;50.090;21.954;2022-11-20T04:46:00;71.05;;;27.05;;
54502;SDS011;40411;50.090;21.954;2022-11-20T04:48:27;59.00;;;22.63;;
54502;SDS011;40411;50.090;21.954;2022-11-20T04:50:54;55.55;;;23.67;;
54502;SDS011;40411;50.090;21.954;2022-11-20T04:53:21;70.38;;;25.75;;
54502;SDS011;40411;50.090;21.954;2022-11-20T04:55:47;67.70;;;24.42;;
54502;SDS011;40411;50.090;21.954;2022-11-20T04:58:14;58.20;;;24.65;;
54502;SDS011;40411;50.090;21.954;2022-11-20T05:00:40;74.40;;;23.88;;
54502;SDS011;40411;50.090;21.954;2022-11-20T05:03:06;77.30;;;24.52;;
54502;SDS011;40411;50.090;21.954;2022-11-20T05:05:33;78.32;;;24.42;;
54502;SDS011;40411;50.090;21.954;2022-11-20T05:08:00;69.00;;;22.83;;
54502;SDS011;40411;50.090;21.954;2022-11-20T05:10:26;60.45;;;24.23;;
54502;SDS011;40411;50.090;21.954;2022-11-20T05:12:52;56.53;;;21.10;;
54502;SDS011;40411;50.090;21.954;2022-11-20T05:15:18;66.35;;;23.38;;
54502;SDS011;40411;50.090;21.954;2022-11-20T05:17:48;54.83;;;20.83;;
54502;SDS011;40411;50.090;21.954;2022-11-20T05:20:15;48.30;;;18.77;;
54502;SDS011;40411;50.090;21.954;2022-11-20T05:22:42;48.00;;;19.42;;
54502;SDS011;40411;50.090;21.954;2022-11-20T05:25:09;46.20;;;18.92;;
54502;SDS011;40411;50.090;21.954;2022-11-20T05:27:36;47.38;;;20.00;;
54502;SDS011;40411;50.090;21.954;2022-11-20T05:30:02;42.45;;;20.13;;
54502;SDS011;40411;50.090;21.954;2022-11-20T05:32:30;53.63;;;18.50;;
54502;SDS011;40411;50.090;21.954;2022-11-20T05:34:55;46.20;;;21.20;;
54502;SDS011;40411;50.090;21.954;2022-11-20T05:37:21;55.83;;;21.50;;
54502;SDS011;40411;50.090;21.954;2022-11-20T05:39:47;59.97;;;20.63;;
54502;SDS011;40411;50.090;21.954;2022-11-20T05:42:13;53.95;;;21.92;;
54502;SDS011;40411;50.090;21.954;2022-11-20T05:44:57;60.83;;;21.63;;
54502;SDS011;40411;50.090;21.954;2022-11-20T05:47:30;52.45;;;20.50;;
54502;SDS011;40411;50.090;21.954;2022-11-20T05:49:57;70.63;;;22.15;;
54502;SDS011;40411;50.090;21.954;2022-11-20T05:52:23;63.58;;;23.25;;
54502;SDS011;40411;50.090;21.954;2022-11-20T05:54:49;58.40;;;22.85;;
54502;SDS011;40411;50.090;21.954;2022-11-20T05:57:15;60.65;;;24.02;;
54502;SDS011;40411;50.090;21.954;2022-11-20T05:59:41;59.90;;;23.80;;
54502;SDS011;40411;50.090;21.954;2022-11-20T06:02:07;55.33;;;23.00;;
54502;SDS011;40411;50.090;21.954;2022-11-20T06:04:35;55.38;;;22.77;;
54502;SDS011;40411;50.090;21.954;2022-11-20T06:07:01;60.35;;;23.52;;
54502;SDS011;40411;50.090;21.954;2022-11-20T06:09:27;65.50;;;24.02;;
54502;SDS011;40411;50.090;21.954;2022-11-20T06:11:53;61.20;;;23.90;;
54502;SDS011;40411;50.090;21.954;2022-11-20T06:14:18;55.38;;;22.05;;
54502;SDS011;40411;50.090;21.954;2022-11-20T06:16:44;60.90;;;22.25;;
54502;SDS011;40411;50.090;21.954;2022-11-20T06:19:10;56.90;;;22.85;;
54502;SDS011;40411;50.090;21.954;2022-11-20T06:21:36;55.58;;;21.45;;
54502;SDS011;40411;50.090;21.954;2022-11-20T06:24:02;62.30;;;23.23;;
54502;SDS011;40411;50.090;21.954;2022-11-20T06:26:28;59.83;;;21.90;;
54502;SDS011;40411;50.090;21.954;2022-11-20T06:28:55;60.97;;;23.63;;
54502;SDS011;40411;50.090;21.954;2022-11-20T06:31:22;58.20;;;26.70;;
54502;SDS011;40411;50.090;21.954;2022-11-20T06:33:49;68.15;;;24.15;;
54502;SDS011;40411;50.090;21.954;2022-11-20T06:36:16;53.17;;;21.85;;
54502;SDS011;40411;50.090;21.954;2022-11-20T06:38:44;69.47;;;25.88;;
54502;SDS011;40411;50.090;21.954;2022-11-20T06:41:11;50.00;;;21.40;;
54502;SDS011;40411;50.090;21.954;2022-11-20T06:43:38;67.43;;;26.67;;
54502;SDS011;40411;50.090;21.954;2022-11-20T06:46:04;72.25;;;27.58;;
54502;SDS011;40411;50.090;21.954;2022-11-20T06:48:31;85.85;;;32.20;;
54502;SDS011;40411;50.090;21.954;2022-11-20T06:50:57;97.25;;;33.80;;
54502;SDS011;40411;50.090;21.954;2022-11-20T06:53:23;73.38;;;28.00;;
54502;SDS011;40411;50.090;21.954;2022-11-20T06:55:50;75.88;;;30.80;;
54502;SDS011;40411;50.090;21.954;2022-11-20T06:58:17;98.00;;;38.47;;
54502;SDS011;40411;50.090;21.954;2022-11-20T07:00:43;98.30;;;35.50;;
54502;SDS011;40411;50.090;21.954;2022-11-20T07:03:10;93.57;;;33.45;;
54502;SDS011;40411;50.090;21.954;2022-11-20T07:05:37;104.15;;;36.30;;
54502;SDS011;40411;50.090;21.954;2022-11-20T07:08:06;114.00;;;40.55;;
54502;SDS011;40411;50.090;21.954;2022-11-20T07:10:32;95.57;;;37.60;;
54502;SDS011;40411;50.090;21.954;2022-11-20T07:12:58;131.43;;;37.95;;
54502;SDS011;40411;50.090;21.954;2022-11-20T07:15:25;104.10;;;35.38;;
54502;SDS011;40411;50.090;21.954;2022-11-20T07:17:51;101.60;;;34.30;;
54502;SDS011;40411;50.090;21.954;2022-11-20T07:20:17;88.55;;;36.10;;
54502;SDS011;40411;50.090;21.954;2022-11-20T07:22:43;87.82;;;35.20;;
54502;SDS011;40411;50.090;21.954;2022-11-20T07:25:09;64.93;;;26.50;;
54502;SDS011;40411;50.090;21.954;2022-11-20T07:27:35;98.57;;;34.95;;
54502;SDS011;40411;50.090;21.954;2022-11-20T07:30:02;135.77;;;44.33;;
54502;SDS011;40411;50.090;21.954;2022-11-20T07:32:29;113.43;;;41.53;;
54502;SDS011;40411;50.090;21.954;2022-11-20T07:34:55;121.50;;;44.03;;
54502;SDS011;40411;50.090;21.954;2022-11-20T07:37:21;122.03;;;39.13;;
54502;SDS011;40411;50.090;21.954;2022-11-20T07:39:47;154.10;;;55.42;;
54502;SDS011;40411;50.090;21.954;2022-11-20T07:42:12;144.40;;;48.45;;
54502;SDS011;40411;50.090;21.954;2022-11-20T07:44:38;132.77;;;49.10;;
54502;SDS011;40411;50.090;21.954;2022-11-20T07:47:04;172.82;;;61.03;;
54502;SDS011;40411;50.090;21.954;2022-11-20T07:49:30;170.20;;;57.00;;
54502;SDS011;40411;50.090;21.954;2022-11-20T07:51:56;145.88;;;47.25;;
54502;SDS011;40411;50.090;21.954;2022-11-20T07:54:22;101.00;;;37.88;;
54502;SDS011;40411;50.090;21.954;2022-11-20T07:56:48;103.82;;;36.92;;
54502;SDS011;40411;50.090;21.954;2022-11-20T07:59:14;108.50;;;36.67;;
54502;SDS011;40411;50.090;21.954;2022-11-20T08:01:43;99.07;;;37.25;;
54502;SDS011;40411;50.090;21.954;2022-11-20T08:04:09;92.30;;;35.30;;
54502;SDS011;40411;50.090;21.954;2022-11-20T08:06:35;83.28;;;32.53;;
54502;SDS011;40411;50.090;21.954;2022-11-20T08:09:02;84.53;;;32.40;;
54502;SDS011;40411;50.090;21.954;2022-11-20T08:11:28;95.80;;;32.78;;
54502;SDS011;40411;50.090;21.954;2022-11-20T08:14:13;71.63;;;30.23;;
54502;SDS011;40411;50.090;21.954;2022-11-20T08:16:40;68.88;;;27.75;;
54502;SDS011;40411;50.090;21.954;2022-11-20T08:19:10;67.85;;;26.48;;
54502;SDS011;40411;50.090;21.954;2022-11-20T08:21:36;71.25;;;29.70;;
54502;SDS011;40411;50.090;21.954;2022-11-20T08:24:02;59.00;;;26.42;;
54502;SDS011;40411;50.090;21.954;2022-11-20T08:26:28;74.10;;;32.40;;
54502;SDS011;40411;50.090;21.954;2022-11-20T08:28:55;89.45;;;32.60;;
54502;SDS011;40411;50.090;21.954;2022-11-20T08:31:22;99.35;;;37.90;;
54502;SDS011;40411;50.090;21.954;2022-11-20T08:33:49;75.90;;;31.67;;
54502;SDS011;40411;50.090;21.954;2022-11-20T08:36:15;83.60;;;33.22;;
54502;SDS011;40411;50.090;21.954;2022-11-20T08:38:41;89.43;;;31.02;;
54502;SDS011;40411;50.090;21.954;2022-11-20T08:41:07;92.15;;;34.10;;
54502;SDS011;40411;50.090;21.954;2022-11-20T08:46:21;104.88;;;39.13;;
54502;SDS011;40411;50.090;21.954;2022-11-20T08:48:47;69.35;;;29.60;;
54502;SDS011;40411;50.090;21.954;2022-11-20T08:51:13;67.90;;;26.35;;
54502;SDS011;40411;50.090;21.954;2022-11-20T08:53:40;75.50;;;29.70;;
54502;SDS011;40411;50.090;21.954;2022-11-20T08:56:06;90.32;;;35.75;;
54502;SDS011;40411;50.090;21.954;2022-11-20T08:58:32;75.22;;;30.00;;
54502;SDS011;40411;50.090;21.954;2022-11-20T09:00:58;70.85;;;27.48;;
54502;SDS011;40411;50.090;21.954;2022-11-20T09:03:24;103.22;;;35.63;;
54502;SDS011;40411;50.090;21.954;2022-11-20T09:05:56;119.03;;;40.15;;
54502;SDS011;40411;50.090;21.954;2022-11-20T09:08:26;104.10;;;40.17;;
54502;SDS011;40411;50.090;21.954;2022-11-20T09:10:53;76.85;;;29.95;;
54502;SDS011;40411;50.090;21.954;2022-11-20T09:13:20;79.20;;;30.23;;
54502;SDS011;40411;50.090;21.954;2022-11-20T09:15:46;73.00;;;27.40;;
54502;SDS011;40411;50.090;21.954;2022-11-20T09:18:12;98.00;;;31.55;;
54502;SDS011;40411;50.090;21.954;2022-11-20T09:20:38;114.55;;;35.33;;
54502;SDS011;40411;50.090;21.954;2022-11-20T09:23:04;84.93;;;31.25;;
54502;SDS011;40411;50.090;21.954;2022-11-20T09:25:30;63.45;;;25.05;;
54502;SDS011;40411;50.090;21.954;2022-11-20T09:27:56;70.32;;;29.42;;
54502;SDS011;40411;50.090;21.954;2022-11-20T09:30:23;72.90;;;29.65;;
54502;SDS011;40411;50.090;21.954;2022-11-20T09:32:49;77.28;;;29.83;;
54502;SDS011;40411;50.090;21.954;2022-11-20T09:35:15;81.38;;;30.55;;
54502;SDS011;40411;50.090;21.954;2022-11-20T09:37:41;77.07;;;30.40;;
54502;SDS011;40411;50.090;21.954;2022-11-20T09:40:06;64.63;;;29.30;;
54502;SDS011;40411;50.090;21.954;2022-11-20T09:42:47;65.30;;;27.35;;
54502;SDS011;40411;50.090;21.954;2022-11-20T09:48:45;71.35;;;30.45;;
54502;SDS011;40411;50.090;21.954;2022-11-20T09:56:47;65.13;;;26.83;;
54502;SDS011;40411;50.090;21.954;2022-11-20T09:59:41;58.72;;;24.08;;
54502;SDS011;40411;50.090;21.954;2022-11-20T10:04:55;60.33;;;25.73;;
54502;SDS011;40411;50.090;21.954;2022-11-20T10:07:34;65.65;;;27.38;;
54502;SDS011;40411;50.090;21.954;2022-11-20T10:10:14;61.97;;;25.00;;
54502;SDS011;40411;50.090;21.954;2022-11-20T10:16:05;65.65;;;26.58;;
54502;SDS011;40411;50.090;21.954;2022-11-20T10:18:44;57.60;;;24.88;;
54502;SDS011;40411;50.090;21.954;2022-11-20T10:29:34;67.10;;;24.55;;
54502;SDS011;40411;50.090;21.954;2022-11-20T10:32:13;52.55;;;25.15;;
54502;SDS011;40411;50.090;21.954;2022-11-20T10:34:51;60.65;;;26.25;;
54502;SDS011;40411;50.090;21.954;2022-11-20T10:37:23;59.55;;;24.40;;
54502;SDS011;40411;50.090;21.954;2022-11-20T10:39:55;56.30;;;24.25;;
54502;SDS011;40411;50.090;21.954;2022-11-20T10:42:42;60.72;;;25.23;;
54502;SDS011;40411;50.090;21.954;2022-11-20T10:47:50;53.20;;;24.85;;
54502;SDS011;40411;50.090;21.954;2022-11-20T10:50:19;60.63;;;24.90;;
54502;SDS011;40411;50.090;21.954;2022-11-20T10:55:30;66.40;;;26.75;;
54502;SDS011;40411;50.090;21.954;2022-11-20T11:00:34;55.95;;;23.73;;
54502;SDS011;40411;50.090;21.954;2022-11-20T11:03:00;59.20;;;23.92;;
54502;SDS011;40411;50.090;21.954;2022-11-20T11:08:03;52.67;;;23.70;;
54502;SDS011;40411;50.090;21.954;2022-11-20T11:10:39;51.08;;;24.48;;
54502;SDS011;40411;50.090;21.954;2022-11-20T11:13:24;56.55;;;24.33;;
54502;SDS011;40411;50.090;21.954;2022-11-20T11:15:52;64.95;;;27.35;;
54502;SDS011;40411;50.090;21.954;2022-11-20T11:18:26;59.47;;;27.83;;
54502;SDS011;40411;50.090;21.954;2022-11-20T11:20:57;57.15;;;27.42;;
54502;SDS011;40411;50.090;21.954;2022-11-20T11:23:38;62.92;;;29.60;;
54502;SDS011;40411;50.090;21.954;2022-11-20T11:26:27;51.75;;;23.30;;
54502;SDS011;40411;50.090;21.954;2022-11-20T11:28:59;51.20;;;24.73;;
54502;SDS011;40411;50.090;21.954;2022-11-20T11:31:29;53.88;;;25.35;;
54502;SDS011;40411;50.090;21.954;2022-11-20T11:34:11;62.30;;;26.45;;
54502;SDS011;40411;50.090;21.954;2022-11-20T11:36:38;64.28;;;26.25;;
54502;SDS011;40411;50.090;21.954;2022-11-20T11:39:06;56.47;;;25.83;;
54502;SDS011;40411;50.090;21.954;2022-11-20T11:41:40;56.13;;;25.67;;
54502;SDS011;40411;50.090;21.954;2022-11-20T11:47:26;39.78;;;18.20;;
54502;SDS011;40411;50.090;21.954;2022-11-20T11:52:56;50.35;;;23.05;;
54502;SDS011;40411;50.090;21.954;2022-11-20T11:56:08;56.70;;;22.63;;
54502;SDS011;40411;50.090;21.954;2022-11-20T12:04:02;53.30;;;25.25;;
54502;SDS011;40411;50.090;21.954;2022-11-20T12:06:45;42.67;;;18.88;;
54502;SDS011;40411;50.090;21.954;2022-11-20T12:09:17;61.75;;;22.88;;
54502;SDS011;40411;50.090;21.954;2022-11-20T12:11:49;61.20;;;25.48;;
54502;SDS011;40411;50.090;21.954;2022-11-20T12:16:52;54.30;;;24.98;;
54502;SDS011;40411;50.090;21.954;2022-11-20T12:19:21;66.45;;;26.70;;
54502;SDS011;40411;50.090;21.954;2022-11-20T12:35:23;65.35;;;29.08;;
54502;SDS011;40411;50.090;21.954;2022-11-20T12:40:59;62.55;;;25.80;;
54502;SDS011;40411;50.090;21.954;2022-11-20T12:43:37;48.28;;;22.38;;
54502;SDS011;40411;50.090;21.954;2022-11-20T12:54:53;72.28;;;29.13;;
54502;SDS011;40411;50.090;21.954;2022-11-20T13:02:37;87.22;;;36.33;;
54502;SDS011;40411;50.090;21.954;2022-11-20T13:08:24;66.57;;;28.30;;
54502;SDS011;40411;50.090;21.954;2022-11-20T13:16:44;73.72;;;30.05;;
54502;SDS011;40411;50.090;21.954;2022-11-20T13:19:16;72.38;;;29.92;;
54502;SDS011;40411;50.090;21.954;2022-11-20T13:21:44;87.80;;;34.72;;
54502;SDS011;40411;50.090;21.954;2022-11-20T13:29:33;70.45;;;25.98;;
54502;SDS011;40411;50.090;21.954;2022-11-20T13:32:04;65.28;;;25.92;;
54502;SDS011;40411;50.090;21.954;2022-11-20T13:34:32;53.70;;;21.90;;
54502;SDS011;40411;50.090;21.954;2022-11-20T13:36:59;51.00;;;20.13;;
54502;SDS011;40411;50.090;21.954;2022-11-20T13:39:35;68.45;;;27.02;;
54502;SDS011;40411;50.090;21.954;2022-11-20T13:42:03;74.38;;;29.33;;
54502;SDS011;40411;50.090;21.954;2022-11-20T13:44:53;51.05;;;21.23;;
54502;SDS011;40411;50.090;21.954;2022-11-20T13:47:24;62.00;;;26.88;;
54502;SDS011;40411;50.090;21.954;2022-11-20T13:49:51;74.68;;;26.83;;
54502;SDS011;40411;50.090;21.954;2022-11-20T14:00:20;108.85;;;43.03;;
54502;SDS011;40411;50.090;21.954;2022-11-20T14:05:25;83.32;;;31.45;;
54502;SDS011;40411;50.090;21.954;2022-11-20T14:07:51;57.33;;;23.15;;
54502;SDS011;40411;50.090;21.954;2022-11-20T14:10:23;85.45;;;37.15;;
54502;SDS011;40411;50.090;21.954;2022-11-20T14:12:52;81.72;;;34.33;;
54502;SDS011;40411;50.090;21.954;2022-11-20T14:15:28;85.53;;;34.65;;
54502;SDS011;40411;50.090;21.954;2022-11-20T14:17:57;88.95;;;36.83;;
54502;SDS011;40411;50.090;21.954;2022-11-20T14:20:27;104.60;;;41.42;;
54502;SDS011;40411;50.090;21.954;2022-11-20T14:25:23;123.57;;;48.58;;
54502;SDS011;40411;50.090;21.954;2022-11-20T14:27:59;130.10;;;46.45;;
54502;SDS011;40411;50.090;21.954;2022-11-20T14:30:28;130.68;;;44.03;;
54502;SDS011;40411;50.090;21.954;2022-11-20T14:33:03;113.10;;;39.30;;
54502;SDS011;40411;50.090;21.954;2022-11-20T14:35:30;138.70;;;50.40;;
54502;SDS011;40411;50.090;21.954;2022-11-20T14:38:08;132.02;;;44.78;;
54502;SDS011;40411;50.090;21.954;2022-11-20T14:40:37;162.45;;;53.42;;
54502;SDS011;40411;50.090;21.954;2022-11-20T14:46:03;176.07;;;59.72;;
54502;SDS011;40411;50.090;21.954;2022-11-20T14:48:43;134.93;;;48.28;;
54502;SDS011;40411;50.090;21.954;2022-11-20T14:51:12;176.02;;;61.85;;
54502;SDS011;40411;50.090;21.954;2022-11-20T14:53:49;207.85;;;80.03;;
54502;SDS011;40411;50.090;21.954;2022-11-20T14:56:20;157.20;;;58.47;;
54502;SDS011;40411;50.090;21.954;2022-11-20T14:58:54;129.15;;;50.05;;
54502;SDS011;40411;50.090;21.954;2022-11-20T15:01:26;128.05;;;52.95;;
54502;SDS011;40411;50.090;21.954;2022-11-20T15:04:06;132.60;;;61.05;;
54502;SDS011;40411;50.090;21.954;2022-11-20T15:06:36;158.98;;;69.07;;
54502;SDS011;40411;50.090;21.954;2022-11-20T15:09:03;122.47;;;52.97;;
54502;SDS011;40411;50.090;21.954;2022-11-20T15:11:31;161.93;;;66.20;;
54502;SDS011;40411;50.090;21.954;2022-11-20T15:14:06;156.60;;;61.40;;
54502;SDS011;40411;50.090;21.954;2022-11-20T15:16:34;152.65;;;62.28;;
54502;SDS011;40411;50.090;21.954;2022-11-20T15:19:01;131.45;;;55.10;;
54502;SDS011;40411;50.090;21.954;2022-11-20T15:21:33;103.85;;;43.72;;
54502;SDS011;40411;50.090;21.954;2022-11-20T15:23:59;89.65;;;39.08;;
54502;SDS011;40411;50.090;21.954;2022-11-20T15:26:26;101.57;;;42.03;;
54502;SDS011;40411;50.090;21.954;2022-11-20T15:28:53;130.43;;;54.53;;
54502;SDS011;40411;50.090;21.954;2022-11-20T15:31:21;152.55;;;59.78;;
54502;SDS011;40411;50.090;21.954;2022-11-20T15:33:49;113.13;;;45.25;;
54502;SDS011;40411;50.090;21.954;2022-11-20T15:36:15;132.15;;;52.20;;
54502;SDS011;40411;50.090;21.954;2022-11-20T15:38:41;145.88;;;58.67;;
54502;SDS011;40411;50.090;21.954;2022-11-20T15:41:07;145.55;;;56.28;;
54502;SDS011;40411;50.090;21.954;2022-11-20T15:43:33;138.73;;;51.22;;
54502;SDS011;40411;50.090;21.954;2022-11-20T15:46:03;147.05;;;52.08;;
54502;SDS011;40411;50.090;21.954;2022-11-20T15:48:48;147.10;;;52.20;;
54502;SDS011;40411;50.090;21.954;2022-11-20T15:53:49;151.63;;;54.17;;
54502;SDS011;40411;50.090;21.954;2022-11-20T15:56:15;171.77;;;59.53;;
54502;SDS011;40411;50.090;21.954;2022-11-20T15:58:42;163.45;;;56.72;;
54502;SDS011;40411;50.090;21.954;2022-11-20T16:01:12;160.50;;;54.10;;
54502;SDS011;40411;50.090;21.954;2022-11-20T16:03:40;170.82;;;59.67;;
54502;SDS011;40411;50.090;21.954;2022-11-20T16:06:06;208.77;;;75.95;;
54502;SDS011;40411;50.090;21.954;2022-11-20T16:08:32;192.38;;;74.50;;
54502;SDS011;40411;50.090;21.954;2022-11-20T16:10:58;281.75;;;99.93;;
54502;SDS011;40411;50.090;21.954;2022-11-20T16:13:24;256.42;;;95.15;;
54502;SDS011;40411;50.090;21.954;2022-11-20T16:18:59;234.25;;;76.68;;
54502;SDS011;40411;50.090;21.954;2022-11-20T16:21:25;199.75;;;74.75;;
54502;SDS011;40411;50.090;21.954;2022-11-20T16:26:25;201.65;;;67.03;;